sensor_id;sensor_type;location;lat;lon;timestamp;temperature;humidity
1361;DHT22;674;45.552;-122.600;2023-12-14T00:01:23;9.10;1.00
1361;DHT22;674;45.552;-122.600;2023-12-14T00:03:52;9.00;1.00
1361;DHT22;674;45.552;-122.600;2023-12-14T00:06:20;9.20;1.00
1361;DHT22;674;45.552;-122.600;2023-12-14T00:08:49;9.00;1.00
1361;DHT22;674;45.552;-122.600;2023-12-14T00:11:17;9.00;1.00
1361;DHT22;674;45.552;-122.600;2023-12-14T00:13:49;8.90;1.00
1361;DHT22;674;45.552;-122.600;2023-12-14T00:16:18;8.90;1.00
1361;DHT22;674;45.552;-122.600;2023-12-14T00:18:46;8.70;1.00
1361;DHT22;674;45.552;-122.600;2023-12-14T00:21:15;8.90;1.00
1361;DHT22;674;45.552;-122.600;2023-12-14T00:23:43;8.90;1.00
1361;DHT22;674;45.552;-122.600;2023-12-14T00:26:12;8.90;1.00
1361;DHT22;674;45.552;-122.600;2023-12-14T00:28:40;8.90;1.00
1361;DHT22;674;45.552;-122.600;2023-12-14T00:31:09;8.80;1.00
1361;DHT22;674;45.552;-122.600;2023-12-14T00:33:38;8.80;1.00
1361;DHT22;674;45.552;-122.600;2023-12-14T00:36:07;8.80;1.00
1361;DHT22;674;45.552;-122.600;2023-12-14T00:38:36;8.80;1.00
1361;DHT22;674;45.552;-122.600;2023-12-14T00:41:04;8.80;1.00
1361;DHT22;674;45.552;-122.600;2023-12-14T00:43:33;8.80;1.00
1361;DHT22;674;45.552;-122.600;2023-12-14T00:46:03;8.70;1.00
1361;DHT22;674;45.552;-122.600;2023-12-14T00:48:31;8.80;1.00
1361;DHT22;674;45.552;-122.600;2023-12-14T00:51:00;8.70;1.00
1361;DHT22;674;45.552;-122.600;2023-12-14T00:53:28;8.80;1.00
1361;DHT22;674;45.552;-122.600;2023-12-14T00:55:56;8.80;1.00
1361;DHT22;674;45.552;-122.600;2023-12-14T00:58:25;8.80;1.00
1361;DHT22;674;45.552;-122.600;2023-12-14T01:00:54;8.80;1.00
1361;DHT22;674;45.552;-122.600;2023-12-14T01:03:22;8.80;1.00
1361;DHT22;674;45.552;-122.600;2023-12-14T01:05:51;8.90;1.00
1361;DHT22;674;45.552;-122.600;2023-12-14T01:08:19;8.80;1.00
1361;DHT22;674;45.552;-122.600;2023-12-14T01:10:48;8.80;1.00
1361;DHT22;674;45.552;-122.600;2023-12-14T01:13:17;8.70;1.00
1361;DHT22;674;45.552;-122.600;2023-12-14T01:15:45;8.70;1.00
1361;DHT22;674;45.552;-122.600;2023-12-14T01:18:13;8.70;1.00
1361;DHT22;674;45.552;-122.600;2023-12-14T01:20:42;8.70;1.00
1361;DHT22;674;45.552;-122.600;2023-12-14T01:23:11;8.80;1.00
1361;DHT22;674;45.552;-122.600;2023-12-14T01:25:39;8.90;1.00
1361;DHT22;674;45.552;-122.600;2023-12-14T01:28:08;8.90;1.00
1361;DHT22;674;45.552;-122.600;2023-12-14T01:30:36;8.80;1.00
1361;DHT22;674;45.552;-122.600;2023-12-14T01:33:05;8.80;1.00
1361;DHT22;674;45.552;-122.600;2023-12-14T01:35:34;8.70;1.00
1361;DHT22;674;45.552;-122.600;2023-12-14T01:38:02;8.60;1.00
1361;DHT22;674;45.552;-122.600;2023-12-14T01:40:31;8.70;1.00
1361;DHT22;674;45.552;-122.600;2023-12-14T01:43:09;8.70;1.00
1361;DHT22;674;45.552;-122.600;2023-12-14T01:45:40;8.90;1.00
1361;DHT22;674;45.552;-122.600;2023-12-14T01:48:09;8.90;1.00
1361;DHT22;674;45.552;-122.600;2023-12-14T01:50:38;8.90;1.00
1361;DHT22;674;45.552;-122.600;2023-12-14T01:53:06;8.70;1.00
1361;DHT22;674;45.552;-122.600;2023-12-14T01:55:35;8.90;1.00
1361;DHT22;674;45.552;-122.600;2023-12-14T01:58:04;8.60;1.00
1361;DHT22;674;45.552;-122.600;2023-12-14T02:00:46;8.60;1.00
1361;DHT22;674;45.552;-122.600;2023-12-14T02:03:17;8.60;1.00
1361;DHT22;674;45.552;-122.600;2023-12-14T02:05:46;8.60;1.00
1361;DHT22;674;45.552;-122.600;2023-12-14T02:08:15;8.60;1.00
1361;DHT22;674;45.552;-122.600;2023-12-14T02:10:43;8.60;1.00
1361;DHT22;674;45.552;-122.600;2023-12-14T02:13:12;8.60;1.00
1361;DHT22;674;45.552;-122.600;2023-12-14T02:15:41;8.40;1.00
1361;DHT22;674;45.552;-122.600;2023-12-14T02:18:09;8.50;1.00
1361;DHT22;674;45.552;-122.600;2023-12-14T02:20:38;8.40;1.00
1361;DHT22;674;45.552;-122.600;2023-12-14T02:23:06;8.50;1.00
1361;DHT22;674;45.552;-122.600;2023-12-14T02:25:35;8.40;1.00
1361;DHT22;674;45.552;-122.600;2023-12-14T02:28:04;8.30;1.00
1361;DHT22;674;45.552;-122.600;2023-12-14T02:30:32;8.40;1.00
1361;DHT22;674;45.552;-122.600;2023-12-14T02:33:01;8.40;1.00
1361;DHT22;674;45.552;-122.600;2023-12-14T02:35:30;8.40;1.00
1361;DHT22;674;45.552;-122.600;2023-12-14T02:37:58;8.40;1.00
1361;DHT22;674;45.552;-122.600;2023-12-14T02:40:27;8.40;1.00
1361;DHT22;674;45.552;-122.600;2023-12-14T02:42:55;8.40;1.00
1361;DHT22;674;45.552;-122.600;2023-12-14T02:45:24;8.40;1.00
1361;DHT22;674;45.552;-122.600;2023-12-14T02:47:52;8.50;1.00
1361;DHT22;674;45.552;-122.600;2023-12-14T02:50:22;8.30;1.00
1361;DHT22;674;45.552;-122.600;2023-12-14T02:52:50;8.40;1.00
1361;DHT22;674;45.552;-122.600;2023-12-14T02:55:19;8.50;1.00
1361;DHT22;674;45.552;-122.600;2023-12-14T02:57:47;8.40;1.00
1361;DHT22;674;45.552;-122.600;2023-12-14T03:00:16;8.40;1.00
1361;DHT22;674;45.552;-122.600;2023-12-14T03:02:45;8.40;1.00
1361;DHT22;674;45.552;-122.600;2023-12-14T03:05:13;8.30;1.00
1361;DHT22;674;45.552;-122.600;2023-12-14T03:07:42;8.30;1.00
1361;DHT22;674;45.552;-122.600;2023-12-14T03:10:11;8.40;1.00
1361;DHT22;674;45.552;-122.600;2023-12-14T03:12:39;8.40;1.00
1361;DHT22;674;45.552;-122.600;2023-12-14T03:15:08;8.40;1.00
1361;DHT22;674;45.552;-122.600;2023-12-14T03:17:36;8.30;1.00
1361;DHT22;674;45.552;-122.600;2023-12-14T03:20:05;8.40;1.00
1361;DHT22;674;45.552;-122.600;2023-12-14T03:22:34;8.60;1.00
1361;DHT22;674;45.552;-122.600;2023-12-14T03:25:04;8.80;1.00
1361;DHT22;674;45.552;-122.600;2023-12-14T03:27:32;8.30;1.00
1361;DHT22;674;45.552;-122.600;2023-12-14T03:30:01;8.40;1.00
1361;DHT22;674;45.552;-122.600;2023-12-14T03:32:31;8.30;1.00
1361;DHT22;674;45.552;-122.600;2023-12-14T03:35:00;8.30;1.00
1361;DHT22;674;45.552;-122.600;2023-12-14T03:37:28;8.30;1.00
1361;DHT22;674;45.552;-122.600;2023-12-14T03:39:57;8.30;1.00
1361;DHT22;674;45.552;-122.600;2023-12-14T03:42:26;8.30;1.00
1361;DHT22;674;45.552;-122.600;2023-12-14T03:44:54;8.30;1.00
1361;DHT22;674;45.552;-122.600;2023-12-14T03:47:23;8.30;1.00
1361;DHT22;674;45.552;-122.600;2023-12-14T03:49:51;8.20;1.00
1361;DHT22;674;45.552;-122.600;2023-12-14T03:52:20;8.30;1.00
1361;DHT22;674;45.552;-122.600;2023-12-14T03:54:49;8.30;1.00
1361;DHT22;674;45.552;-122.600;2023-12-14T03:57:17;8.30;1.00
1361;DHT22;674;45.552;-122.600;2023-12-14T03:59:46;8.30;1.00
1361;DHT22;674;45.552;-122.600;2023-12-14T04:02:14;8.20;1.00
1361;DHT22;674;45.552;-122.600;2023-12-14T04:04:42;8.20;1.00
1361;DHT22;674;45.552;-122.600;2023-12-14T04:07:11;8.20;1.00
1361;DHT22;674;45.552;-122.600;2023-12-14T04:09:40;8.50;1.00
1361;DHT22;674;45.552;-122.600;2023-12-14T04:12:08;8.20;1.00
1361;DHT22;674;45.552;-122.600;2023-12-14T04:14:37;8.20;1.00
1361;DHT22;674;45.552;-122.600;2023-12-14T04:17:06;8.00;1.00
1361;DHT22;674;45.552;-122.600;2023-12-14T04:19:34;8.50;1.00
1361;DHT22;674;45.552;-122.600;2023-12-14T04:22:03;8.20;1.00
1361;DHT22;674;45.552;-122.600;2023-12-14T04:24:32;8.30;1.00
1361;DHT22;674;45.552;-122.600;2023-12-14T04:27:00;8.20;1.00
1361;DHT22;674;45.552;-122.600;2023-12-14T04:29:28;8.20;1.00
1361;DHT22;674;45.552;-122.600;2023-12-14T04:31:57;8.20;1.00
1361;DHT22;674;45.552;-122.600;2023-12-14T04:34:25;8.20;1.00
1361;DHT22;674;45.552;-122.600;2023-12-14T04:36:54;8.20;1.00
1361;DHT22;674;45.552;-122.600;2023-12-14T04:39:26;8.20;1.00
1361;DHT22;674;45.552;-122.600;2023-12-14T04:41:54;8.20;1.00
1361;DHT22;674;45.552;-122.600;2023-12-14T04:44:23;8.20;1.00
1361;DHT22;674;45.552;-122.600;2023-12-14T04:46:51;8.50;1.00
1361;DHT22;674;45.552;-122.600;2023-12-14T04:49:20;8.20;1.00
1361;DHT22;674;45.552;-122.600;2023-12-14T04:51:48;8.30;1.00
1361;DHT22;674;45.552;-122.600;2023-12-14T04:54:20;8.30;1.00
1361;DHT22;674;45.552;-122.600;2023-12-14T04:56:48;8.30;1.00
1361;DHT22;674;45.552;-122.600;2023-12-14T04:59:17;8.30;1.00
1361;DHT22;674;45.552;-122.600;2023-12-14T05:01:45;8.30;1.00
1361;DHT22;674;45.552;-122.600;2023-12-14T05:04:14;8.30;1.00
1361;DHT22;674;45.552;-122.600;2023-12-14T05:06:42;8.30;1.00
1361;DHT22;674;45.552;-122.600;2023-12-14T05:09:11;8.50;1.00
1361;DHT22;674;45.552;-122.600;2023-12-14T05:11:40;8.20;1.00
1361;DHT22;674;45.552;-122.600;2023-12-14T05:14:09;8.20;1.00
1361;DHT22;674;45.552;-122.600;2023-12-14T05:16:37;8.30;1.00
1361;DHT22;674;45.552;-122.600;2023-12-14T05:19:07;8.20;1.00
1361;DHT22;674;45.552;-122.600;2023-12-14T05:21:35;8.20;1.00
1361;DHT22;674;45.552;-122.600;2023-12-14T05:24:04;8.30;1.00
1361;DHT22;674;45.552;-122.600;2023-12-14T05:26:33;8.20;1.00
1361;DHT22;674;45.552;-122.600;2023-12-14T05:29:01;8.00;1.00
1361;DHT22;674;45.552;-122.600;2023-12-14T05:31:30;8.00;1.00
1361;DHT22;674;45.552;-122.600;2023-12-14T05:33:59;8.10;1.00
1361;DHT22;674;45.552;-122.600;2023-12-14T05:36:27;8.10;1.00
1361;DHT22;674;45.552;-122.600;2023-12-14T05:38:56;8.00;1.00
1361;DHT22;674;45.552;-122.600;2023-12-14T05:41:25;8.10;1.00
1361;DHT22;674;45.552;-122.600;2023-12-14T05:43:54;8.00;1.00
1361;DHT22;674;45.552;-122.600;2023-12-14T05:46:25;8.10;1.00
1361;DHT22;674;45.552;-122.600;2023-12-14T05:48:54;8.10;1.00
1361;DHT22;674;45.552;-122.600;2023-12-14T05:51:30;8.10;1.00
1361;DHT22;674;45.552;-122.600;2023-12-14T05:53:59;8.10;1.00
1361;DHT22;674;45.552;-122.600;2023-12-14T05:56:28;8.00;1.00
1361;DHT22;674;45.552;-122.600;2023-12-14T05:58:57;8.10;1.00
1361;DHT22;674;45.552;-122.600;2023-12-14T06:01:27;8.00;1.00
1361;DHT22;674;45.552;-122.600;2023-12-14T06:03:55;8.10;1.00
1361;DHT22;674;45.552;-122.600;2023-12-14T06:06:24;8.00;1.00
1361;DHT22;674;45.552;-122.600;2023-12-14T06:08:52;8.40;1.00
1361;DHT22;674;45.552;-122.600;2023-12-14T06:11:21;8.10;1.00
1361;DHT22;674;45.552;-122.600;2023-12-14T06:13:50;8.00;1.00
1361;DHT22;674;45.552;-122.600;2023-12-14T06:16:18;8.00;1.00
1361;DHT22;674;45.552;-122.600;2023-12-14T06:18:47;8.00;1.00
1361;DHT22;674;45.552;-122.600;2023-12-14T06:21:15;8.00;1.00
1361;DHT22;674;45.552;-122.600;2023-12-14T06:23:44;8.00;1.00
1361;DHT22;674;45.552;-122.600;2023-12-14T06:26:15;8.00;1.00
1361;DHT22;674;45.552;-122.600;2023-12-14T06:28:44;8.00;1.00
1361;DHT22;674;45.552;-122.600;2023-12-14T06:31:13;8.40;1.00
1361;DHT22;674;45.552;-122.600;2023-12-14T06:33:42;7.90;1.00
1361;DHT22;674;45.552;-122.600;2023-12-14T06:36:11;8.00;1.00
1361;DHT22;674;45.552;-122.600;2023-12-14T06:38:39;8.20;1.00
1361;DHT22;674;45.552;-122.600;2023-12-14T06:41:08;8.00;1.00
1361;DHT22;674;45.552;-122.600;2023-12-14T06:43:37;8.00;1.00
1361;DHT22;674;45.552;-122.600;2023-12-14T06:46:06;8.20;1.00
1361;DHT22;674;45.552;-122.600;2023-12-14T06:48:34;8.00;1.00
1361;DHT22;674;45.552;-122.600;2023-12-14T06:51:03;8.00;1.00
1361;DHT22;674;45.552;-122.600;2023-12-14T06:53:31;8.00;1.00
1361;DHT22;674;45.552;-122.600;2023-12-14T06:56:00;8.10;1.00
1361;DHT22;674;45.552;-122.600;2023-12-14T06:58:28;8.00;1.00
1361;DHT22;674;45.552;-122.600;2023-12-14T07:00:57;8.10;1.00
1361;DHT22;674;45.552;-122.600;2023-12-14T07:03:25;8.10;1.00
1361;DHT22;674;45.552;-122.600;2023-12-14T07:05:54;8.20;1.00
1361;DHT22;674;45.552;-122.600;2023-12-14T07:08:22;8.00;1.00
1361;DHT22;674;45.552;-122.600;2023-12-14T07:10:51;8.00;1.00
1361;DHT22;674;45.552;-122.600;2023-12-14T07:13:20;8.00;1.00
1361;DHT22;674;45.552;-122.600;2023-12-14T07:15:49;8.10;1.00
1361;DHT22;674;45.552;-122.600;2023-12-14T07:18:17;7.90;1.00
1361;DHT22;674;45.552;-122.600;2023-12-14T07:20:46;7.90;1.00
1361;DHT22;674;45.552;-122.600;2023-12-14T07:23:14;8.00;1.00
1361;DHT22;674;45.552;-122.600;2023-12-14T07:25:43;8.00;1.00
1361;DHT22;674;45.552;-122.600;2023-12-14T07:28:11;8.00;1.00
1361;DHT22;674;45.552;-122.600;2023-12-14T07:30:40;7.90;1.00
1361;DHT22;674;45.552;-122.600;2023-12-14T07:33:08;7.90;1.00
1361;DHT22;674;45.552;-122.600;2023-12-14T07:35:37;8.00;1.00
1361;DHT22;674;45.552;-122.600;2023-12-14T07:38:05;7.90;1.00
1361;DHT22;674;45.552;-122.600;2023-12-14T07:40:34;8.00;1.00
1361;DHT22;674;45.552;-122.600;2023-12-14T07:43:02;7.90;1.00
1361;DHT22;674;45.552;-122.600;2023-12-14T07:45:31;8.20;1.00
1361;DHT22;674;45.552;-122.600;2023-12-14T07:47:59;7.90;1.00
1361;DHT22;674;45.552;-122.600;2023-12-14T07:50:28;8.00;1.00
1361;DHT22;674;45.552;-122.600;2023-12-14T07:52:57;8.40;1.00
1361;DHT22;674;45.552;-122.600;2023-12-14T07:55:25;8.00;1.00
1361;DHT22;674;45.552;-122.600;2023-12-14T07:57:53;8.10;1.00
1361;DHT22;674;45.552;-122.600;2023-12-14T08:00:22;8.10;1.00
1361;DHT22;674;45.552;-122.600;2023-12-14T08:02:50;8.10;1.00
1361;DHT22;674;45.552;-122.600;2023-12-14T08:05:19;8.00;1.00
1361;DHT22;674;45.552;-122.600;2023-12-14T08:07:48;8.00;1.00
1361;DHT22;674;45.552;-122.600;2023-12-14T08:10:20;8.00;1.00
1361;DHT22;674;45.552;-122.600;2023-12-14T08:12:48;8.10;1.00
1361;DHT22;674;45.552;-122.600;2023-12-14T08:15:19;8.00;1.00
1361;DHT22;674;45.552;-122.600;2023-12-14T08:17:47;8.10;1.00
1361;DHT22;674;45.552;-122.600;2023-12-14T08:20:16;8.00;1.00
1361;DHT22;674;45.552;-122.600;2023-12-14T08:22:45;7.90;1.00
1361;DHT22;674;45.552;-122.600;2023-12-14T08:25:14;8.40;1.00
1361;DHT22;674;45.552;-122.600;2023-12-14T08:27:43;8.00;1.00
1361;DHT22;674;45.552;-122.600;2023-12-14T08:30:12;8.00;1.00
1361;DHT22;674;45.552;-122.600;2023-12-14T08:32:41;8.00;1.00
1361;DHT22;674;45.552;-122.600;2023-12-14T08:35:10;8.00;1.00
1361;DHT22;674;45.552;-122.600;2023-12-14T08:37:38;8.10;1.00
1361;DHT22;674;45.552;-122.600;2023-12-14T08:40:07;8.00;1.00
1361;DHT22;674;45.552;-122.600;2023-12-14T08:42:36;8.00;1.00
1361;DHT22;674;45.552;-122.600;2023-12-14T08:45:07;8.00;1.00
1361;DHT22;674;45.552;-122.600;2023-12-14T08:47:38;8.00;1.00
1361;DHT22;674;45.552;-122.600;2023-12-14T08:50:07;7.90;1.00
1361;DHT22;674;45.552;-122.600;2023-12-14T08:52:37;8.00;1.00
1361;DHT22;674;45.552;-122.600;2023-12-14T08:55:06;7.90;1.00
1361;DHT22;674;45.552;-122.600;2023-12-14T08:57:35;7.90;1.00
1361;DHT22;674;45.552;-122.600;2023-12-14T09:00:04;7.90;1.00
1361;DHT22;674;45.552;-122.600;2023-12-14T09:02:36;7.90;1.00
1361;DHT22;674;45.552;-122.600;2023-12-14T09:05:05;7.90;1.00
1361;DHT22;674;45.552;-122.600;2023-12-14T09:07:34;7.90;1.00
1361;DHT22;674;45.552;-122.600;2023-12-14T09:10:03;7.70;1.00
1361;DHT22;674;45.552;-122.600;2023-12-14T09:12:32;7.80;1.00
1361;DHT22;674;45.552;-122.600;2023-12-14T09:15:02;8.00;1.00
1361;DHT22;674;45.552;-122.600;2023-12-14T09:17:30;7.60;1.00
1361;DHT22;674;45.552;-122.600;2023-12-14T09:20:04;8.00;1.00
1361;DHT22;674;45.552;-122.600;2023-12-14T09:22:33;7.70;1.00
1361;DHT22;674;45.552;-122.600;2023-12-14T09:25:02;7.60;1.00
1361;DHT22;674;45.552;-122.600;2023-12-14T09:27:31;8.00;1.00
1361;DHT22;674;45.552;-122.600;2023-12-14T09:30:00;7.60;1.00
1361;DHT22;674;45.552;-122.600;2023-12-14T09:32:29;7.50;1.00
1361;DHT22;674;45.552;-122.600;2023-12-14T09:34:58;7.60;1.00
1361;DHT22;674;45.552;-122.600;2023-12-14T09:37:27;7.50;1.00
1361;DHT22;674;45.552;-122.600;2023-12-14T09:39:56;7.50;1.00
1361;DHT22;674;45.552;-122.600;2023-12-14T09:42:24;7.60;1.00
1361;DHT22;674;45.552;-122.600;2023-12-14T09:44:53;7.60;1.00
1361;DHT22;674;45.552;-122.600;2023-12-14T09:47:22;7.60;1.00
1361;DHT22;674;45.552;-122.600;2023-12-14T09:49:52;7.60;1.00
1361;DHT22;674;45.552;-122.600;2023-12-14T09:52:21;7.60;1.00
1361;DHT22;674;45.552;-122.600;2023-12-14T09:54:49;7.60;1.00
1361;DHT22;674;45.552;-122.600;2023-12-14T09:57:23;7.60;1.00
1361;DHT22;674;45.552;-122.600;2023-12-14T09:59:54;7.70;1.00
1361;DHT22;674;45.552;-122.600;2023-12-14T10:02:27;7.70;1.00
1361;DHT22;674;45.552;-122.600;2023-12-14T10:04:55;7.60;1.00
1361;DHT22;674;45.552;-122.600;2023-12-14T10:07:24;8.10;1.00
1361;DHT22;674;45.552;-122.600;2023-12-14T10:09:53;7.90;1.00
1361;DHT22;674;45.552;-122.600;2023-12-14T10:12:22;7.80;1.00
1361;DHT22;674;45.552;-122.600;2023-12-14T10:15:00;7.80;1.00
1361;DHT22;674;45.552;-122.600;2023-12-14T10:17:33;7.90;1.00
1361;DHT22;674;45.552;-122.600;2023-12-14T10:20:02;7.90;1.00
1361;DHT22;674;45.552;-122.600;2023-12-14T10:22:33;7.90;1.00
1361;DHT22;674;45.552;-122.600;2023-12-14T10:25:03;7.90;1.00
1361;DHT22;674;45.552;-122.600;2023-12-14T10:27:33;7.90;1.00
1361;DHT22;674;45.552;-122.600;2023-12-14T10:30:06;7.90;1.00
1361;DHT22;674;45.552;-122.600;2023-12-14T10:32:36;7.90;1.00
1361;DHT22;674;45.552;-122.600;2023-12-14T10:35:05;7.90;1.00
1361;DHT22;674;45.552;-122.600;2023-12-14T10:37:37;7.90;1.00
1361;DHT22;674;45.552;-122.600;2023-12-14T10:40:07;7.90;1.00
1361;DHT22;674;45.552;-122.600;2023-12-14T10:42:41;7.90;1.00
1361;DHT22;674;45.552;-122.600;2023-12-14T10:45:14;8.00;1.00
1361;DHT22;674;45.552;-122.600;2023-12-14T10:47:48;7.90;1.00
1361;DHT22;674;45.552;-122.600;2023-12-14T10:50:19;7.90;1.00
1361;DHT22;674;45.552;-122.600;2023-12-14T10:52:48;7.90;1.00
1361;DHT22;674;45.552;-122.600;2023-12-14T10:55:37;7.90;1.00
1361;DHT22;674;45.552;-122.600;2023-12-14T10:58:08;7.90;1.00
1361;DHT22;674;45.552;-122.600;2023-12-14T11:00:38;7.90;1.00
1361;DHT22;674;45.552;-122.600;2023-12-14T11:03:06;7.90;1.00
1361;DHT22;674;45.552;-122.600;2023-12-14T11:05:35;7.80;1.00
1361;DHT22;674;45.552;-122.600;2023-12-14T11:08:05;7.90;1.00
1361;DHT22;674;45.552;-122.600;2023-12-14T11:10:42;7.90;1.00
1361;DHT22;674;45.552;-122.600;2023-12-14T11:13:14;7.80;1.00
1361;DHT22;674;45.552;-122.600;2023-12-14T11:15:50;7.60;1.00
1361;DHT22;674;45.552;-122.600;2023-12-14T11:18:19;7.70;1.00
1361;DHT22;674;45.552;-122.600;2023-12-14T11:20:56;7.50;1.00
1361;DHT22;674;45.552;-122.600;2023-12-14T11:25:56;7.70;1.00
1361;DHT22;674;45.552;-122.600;2023-12-14T11:28:34;7.70;1.00
1361;DHT22;674;45.552;-122.600;2023-12-14T11:31:03;7.70;1.00
1361;DHT22;674;45.552;-122.600;2023-12-14T11:33:35;7.70;1.00
1361;DHT22;674;45.552;-122.600;2023-12-14T11:36:11;7.70;1.00
1361;DHT22;674;45.552;-122.600;2023-12-14T11:38:42;7.70;1.00
1361;DHT22;674;45.552;-122.600;2023-12-14T11:41:11;7.60;1.00
1361;DHT22;674;45.552;-122.600;2023-12-14T11:43:41;8.10;1.00
1361;DHT22;674;45.552;-122.600;2023-12-14T11:46:11;7.70;1.00
1361;DHT22;674;45.552;-122.600;2023-12-14T11:48:40;7.70;1.00
1361;DHT22;674;45.552;-122.600;2023-12-14T11:51:10;7.60;1.00
1361;DHT22;674;45.552;-122.600;2023-12-14T11:53:38;7.60;1.00
1361;DHT22;674;45.552;-122.600;2023-12-14T11:56:07;7.80;1.00
1361;DHT22;674;45.552;-122.600;2023-12-14T11:58:36;7.80;1.00
1361;DHT22;674;45.552;-122.600;2023-12-14T12:01:13;7.60;1.00
1361;DHT22;674;45.552;-122.600;2023-12-14T12:03:42;7.80;1.00
1361;DHT22;674;45.552;-122.600;2023-12-14T12:06:24;7.50;1.00
1361;DHT22;674;45.552;-122.600;2023-12-14T12:08:53;7.60;1.00
1361;DHT22;674;45.552;-122.600;2023-12-14T12:11:23;7.50;1.00
1361;DHT22;674;45.552;-122.600;2023-12-14T12:13:54;7.50;1.00
1361;DHT22;674;45.552;-122.600;2023-12-14T12:16:23;7.50;1.00
1361;DHT22;674;45.552;-122.600;2023-12-14T12:18:51;7.60;1.00
1361;DHT22;674;45.552;-122.600;2023-12-14T12:21:20;7.80;1.00
1361;DHT22;674;45.552;-122.600;2023-12-14T12:23:49;7.50;1.00
1361;DHT22;674;45.552;-122.600;2023-12-14T12:26:17;7.50;1.00
1361;DHT22;674;45.552;-122.600;2023-12-14T12:28:46;7.50;1.00
1361;DHT22;674;45.552;-122.600;2023-12-14T12:31:16;7.50;1.00
1361;DHT22;674;45.552;-122.600;2023-12-14T12:33:45;7.60;1.00
1361;DHT22;674;45.552;-122.600;2023-12-14T12:36:13;7.70;1.00
1361;DHT22;674;45.552;-122.600;2023-12-14T12:38:43;7.60;1.00
1361;DHT22;674;45.552;-122.600;2023-12-14T12:41:11;7.60;1.00
1361;DHT22;674;45.552;-122.600;2023-12-14T12:43:40;7.60;1.00
1361;DHT22;674;45.552;-122.600;2023-12-14T12:46:08;7.60;1.00
1361;DHT22;674;45.552;-122.600;2023-12-14T12:48:37;7.60;1.00
1361;DHT22;674;45.552;-122.600;2023-12-14T12:51:06;7.60;1.00
1361;DHT22;674;45.552;-122.600;2023-12-14T12:53:35;7.70;1.00
1361;DHT22;674;45.552;-122.600;2023-12-14T12:56:04;7.60;1.00
1361;DHT22;674;45.552;-122.600;2023-12-14T12:58:32;7.70;1.00
1361;DHT22;674;45.552;-122.600;2023-12-14T13:01:01;7.70;1.00
1361;DHT22;674;45.552;-122.600;2023-12-14T13:03:30;7.80;1.00
1361;DHT22;674;45.552;-122.600;2023-12-14T13:05:58;7.60;1.00
1361;DHT22;674;45.552;-122.600;2023-12-14T13:08:27;7.80;1.00
1361;DHT22;674;45.552;-122.600;2023-12-14T13:10:55;7.80;1.00
1361;DHT22;674;45.552;-122.600;2023-12-14T13:13:24;8.00;1.00
1361;DHT22;674;45.552;-122.600;2023-12-14T13:15:52;7.60;1.00
1361;DHT22;674;45.552;-122.600;2023-12-14T13:18:21;7.80;1.00
1361;DHT22;674;45.552;-122.600;2023-12-14T13:20:50;7.80;1.00
1361;DHT22;674;45.552;-122.600;2023-12-14T13:23:18;8.00;1.00
1361;DHT22;674;45.552;-122.600;2023-12-14T13:25:47;7.80;1.00
1361;DHT22;674;45.552;-122.600;2023-12-14T13:28:16;7.80;1.00
1361;DHT22;674;45.552;-122.600;2023-12-14T13:30:44;7.80;1.00
1361;DHT22;674;45.552;-122.600;2023-12-14T13:33:13;7.80;1.00
1361;DHT22;674;45.552;-122.600;2023-12-14T13:35:42;8.00;1.00
1361;DHT22;674;45.552;-122.600;2023-12-14T13:38:10;7.80;1.00
1361;DHT22;674;45.552;-122.600;2023-12-14T13:40:39;7.90;1.00
1361;DHT22;674;45.552;-122.600;2023-12-14T13:43:08;7.80;1.00
1361;DHT22;674;45.552;-122.600;2023-12-14T13:45:38;7.80;1.00
1361;DHT22;674;45.552;-122.600;2023-12-14T13:48:07;8.10;1.00
1361;DHT22;674;45.552;-122.600;2023-12-14T13:50:36;7.90;1.00
1361;DHT22;674;45.552;-122.600;2023-12-14T13:53:05;7.90;1.00
1361;DHT22;674;45.552;-122.600;2023-12-14T13:55:34;7.90;1.00
1361;DHT22;674;45.552;-122.600;2023-12-14T13:58:03;7.90;1.00
1361;DHT22;674;45.552;-122.600;2023-12-14T14:00:31;7.80;1.00
1361;DHT22;674;45.552;-122.600;2023-12-14T14:03:03;7.80;1.00
1361;DHT22;674;45.552;-122.600;2023-12-14T14:05:32;7.80;1.00
1361;DHT22;674;45.552;-122.600;2023-12-14T14:08:01;7.70;1.00
1361;DHT22;674;45.552;-122.600;2023-12-14T14:10:33;8.10;1.00
1361;DHT22;674;45.552;-122.600;2023-12-14T14:13:01;7.80;1.00
1361;DHT22;674;45.552;-122.600;2023-12-14T14:15:30;8.10;1.00
1361;DHT22;674;45.552;-122.600;2023-12-14T14:17:59;7.80;1.00
1361;DHT22;674;45.552;-122.600;2023-12-14T14:20:29;7.70;1.00
1361;DHT22;674;45.552;-122.600;2023-12-14T14:22:57;7.90;1.00
1361;DHT22;674;45.552;-122.600;2023-12-14T14:25:28;7.80;1.00
1361;DHT22;674;45.552;-122.600;2023-12-14T14:27:56;8.00;1.00
1361;DHT22;674;45.552;-122.600;2023-12-14T14:30:26;7.90;1.00
1361;DHT22;674;45.552;-122.600;2023-12-14T14:32:55;8.00;1.00
1361;DHT22;674;45.552;-122.600;2023-12-14T14:35:23;7.80;1.00
1361;DHT22;674;45.552;-122.600;2023-12-14T14:37:52;7.60;1.00
1361;DHT22;674;45.552;-122.600;2023-12-14T14:40:21;7.80;1.00
1361;DHT22;674;45.552;-122.600;2023-12-14T14:42:50;8.00;1.00
1361;DHT22;674;45.552;-122.600;2023-12-14T14:45:18;7.80;1.00
1361;DHT22;674;45.552;-122.600;2023-12-14T14:47:47;7.80;1.00
1361;DHT22;674;45.552;-122.600;2023-12-14T14:50:16;7.90;1.00
1361;DHT22;674;45.552;-122.600;2023-12-14T14:52:44;7.90;1.00
1361;DHT22;674;45.552;-122.600;2023-12-14T14:55:14;7.90;1.00
1361;DHT22;674;45.552;-122.600;2023-12-14T14:57:42;7.90;1.00
1361;DHT22;674;45.552;-122.600;2023-12-14T15:00:11;7.90;1.00
1361;DHT22;674;45.552;-122.600;2023-12-14T15:02:39;8.00;1.00
1361;DHT22;674;45.552;-122.600;2023-12-14T15:05:08;8.00;1.00
1361;DHT22;674;45.552;-122.600;2023-12-14T15:07:37;7.90;1.00
1361;DHT22;674;45.552;-122.600;2023-12-14T15:10:06;7.90;1.00
1361;DHT22;674;45.552;-122.600;2023-12-14T15:12:35;8.20;1.00
1361;DHT22;674;45.552;-122.600;2023-12-14T15:15:04;8.00;1.00
1361;DHT22;674;45.552;-122.600;2023-12-14T15:17:37;7.90;1.00
1361;DHT22;674;45.552;-122.600;2023-12-14T15:20:06;7.90;1.00
1361;DHT22;674;45.552;-122.600;2023-12-14T15:22:35;7.90;1.00
1361;DHT22;674;45.552;-122.600;2023-12-14T15:25:05;7.90;1.00
1361;DHT22;674;45.552;-122.600;2023-12-14T15:27:33;7.90;1.00
1361;DHT22;674;45.552;-122.600;2023-12-14T15:30:02;7.80;1.00
1361;DHT22;674;45.552;-122.600;2023-12-14T15:32:32;7.70;1.00
1361;DHT22;674;45.552;-122.600;2023-12-14T15:35:02;7.90;1.00
1361;DHT22;674;45.552;-122.600;2023-12-14T15:37:31;7.60;1.00
1361;DHT22;674;45.552;-122.600;2023-12-14T15:39:59;7.60;1.00
1361;DHT22;674;45.552;-122.600;2023-12-14T15:42:28;7.50;1.00
1361;DHT22;674;45.552;-122.600;2023-12-14T15:44:56;7.60;1.00
1361;DHT22;674;45.552;-122.600;2023-12-14T15:47:25;7.60;1.00
1361;DHT22;674;45.552;-122.600;2023-12-14T15:49:53;7.70;1.00
1361;DHT22;674;45.552;-122.600;2023-12-14T15:52:22;7.60;1.00
1361;DHT22;674;45.552;-122.600;2023-12-14T15:54:50;7.60;1.00
1361;DHT22;674;45.552;-122.600;2023-12-14T15:57:19;7.50;1.00
1361;DHT22;674;45.552;-122.600;2023-12-14T15:59:48;7.50;1.00
1361;DHT22;674;45.552;-122.600;2023-12-14T16:02:16;7.20;1.00
1361;DHT22;674;45.552;-122.600;2023-12-14T16:04:45;7.20;1.00
1361;DHT22;674;45.552;-122.600;2023-12-14T16:07:14;7.30;1.00
1361;DHT22;674;45.552;-122.600;2023-12-14T16:09:42;7.30;1.00
1361;DHT22;674;45.552;-122.600;2023-12-14T16:12:11;7.60;1.00
1361;DHT22;674;45.552;-122.600;2023-12-14T16:14:39;7.40;1.00
1361;DHT22;674;45.552;-122.600;2023-12-14T16:17:08;7.30;1.00